sensor_id;sensor_type;location;lat;lon;timestamp;P1;durP1;ratioP1;P2;durP2;ratioP2
50906;SDS011;36882;27.680;85.304;2022-09-03T00:01:28;34.03;;;24.23;;
50906;SDS011;36882;27.680;85.304;2022-09-03T00:04:06;43.05;;;25.42;;
50906;SDS011;36882;27.680;85.304;2022-09-03T00:06:54;40.63;;;25.45;;
50906;SDS011;36882;27.680;85.304;2022-09-03T00:09:35;34.28;;;24.80;;
50906;SDS011;36882;27.680;85.304;2022-09-03T00:12:20;31.83;;;22.73;;
50906;SDS011;36882;27.680;85.304;2022-09-03T00:15:03;35.75;;;24.80;;
50906;SDS011;36882;27.680;85.304;2022-09-03T00:17:48;36.33;;;25.60;;
50906;SDS011;36882;27.680;85.304;2022-09-03T00:20:26;33.72;;;21.80;;
50906;SDS011;36882;27.680;85.304;2022-09-03T00:23:11;39.05;;;23.90;;
50906;SDS011;36882;27.680;85.304;2022-09-03T00:28:49;37.00;;;23.38;;
50906;SDS011;36882;27.680;85.304;2022-09-03T00:37:11;37.35;;;24.15;;
50906;SDS011;36882;27.680;85.304;2022-09-03T00:39:44;40.67;;;25.45;;
50906;SDS011;36882;27.680;85.304;2022-09-03T00:45:22;43.33;;;23.08;;
50906;SDS011;36882;27.680;85.304;2022-09-03T00:48:07;34.95;;;25.10;;
50906;SDS011;36882;27.680;85.304;2022-09-03T00:59:50;34.90;;;26.80;;
50906;SDS011;36882;27.680;85.304;2022-09-03T01:08:42;44.63;;;26.52;;
50906;SDS011;36882;27.680;85.304;2022-09-03T01:14:30;39.88;;;25.25;;
50906;SDS011;36882;27.680;85.304;2022-09-03T01:23:00;43.63;;;25.55;;
50906;SDS011;36882;27.680;85.304;2022-09-03T01:29:02;40.60;;;26.27;;
50906;SDS011;36882;27.680;85.304;2022-09-03T01:31:55;41.70;;;25.77;;
50906;SDS011;36882;27.680;85.304;2022-09-03T01:40:38;45.45;;;27.33;;
50906;SDS011;36882;27.680;85.304;2022-09-03T01:44:00;35.13;;;25.73;;
50906;SDS011;36882;27.680;85.304;2022-09-03T01:46:56;39.00;;;22.92;;
50906;SDS011;36882;27.680;85.304;2022-09-03T01:49:40;43.17;;;24.33;;
50906;SDS011;36882;27.680;85.304;2022-09-03T01:58:23;44.03;;;24.20;;
50906;SDS011;36882;27.680;85.304;2022-09-03T02:01:00;45.80;;;25.60;;
50906;SDS011;36882;27.680;85.304;2022-09-03T02:03:37;44.33;;;24.85;;
50906;SDS011;36882;27.680;85.304;2022-09-03T02:06:10;47.28;;;25.88;;
50906;SDS011;36882;27.680;85.304;2022-09-03T02:08:41;48.15;;;25.17;;
50906;SDS011;36882;27.680;85.304;2022-09-03T02:11:12;43.08;;;24.05;;
50906;SDS011;36882;27.680;85.304;2022-09-03T02:13:44;42.25;;;25.23;;
50906;SDS011;36882;27.680;85.304;2022-09-03T02:16:20;43.13;;;25.77;;
50906;SDS011;36882;27.680;85.304;2022-09-03T02:18:55;44.53;;;27.63;;
50906;SDS011;36882;27.680;85.304;2022-09-03T02:21:32;48.65;;;27.42;;
50906;SDS011;36882;27.680;85.304;2022-09-03T02:24:04;40.08;;;28.52;;
50906;SDS011;36882;27.680;85.304;2022-09-03T02:26:37;43.72;;;27.63;;
50906;SDS011;36882;27.680;85.304;2022-09-03T02:29:07;42.22;;;29.77;;
50906;SDS011;36882;27.680;85.304;2022-09-03T02:31:37;48.00;;;29.05;;
50906;SDS011;36882;27.680;85.304;2022-09-03T02:34:08;48.63;;;31.75;;
50906;SDS011;36882;27.680;85.304;2022-09-03T02:36:42;49.35;;;29.98;;
50906;SDS011;36882;27.680;85.304;2022-09-03T02:39:16;42.28;;;28.20;;
50906;SDS011;36882;27.680;85.304;2022-09-03T02:41:52;51.55;;;33.17;;
50906;SDS011;36882;27.680;85.304;2022-09-03T02:44:28;48.55;;;32.75;;
50906;SDS011;36882;27.680;85.304;2022-09-03T02:47:04;53.47;;;30.15;;
50906;SDS011;36882;27.680;85.304;2022-09-03T02:49:38;45.38;;;29.75;;
50906;SDS011;36882;27.680;85.304;2022-09-03T02:52:10;43.22;;;29.00;;
50906;SDS011;36882;27.680;85.304;2022-09-03T02:54:42;47.03;;;32.13;;
50906;SDS011;36882;27.680;85.304;2022-09-03T02:57:14;43.38;;;30.48;;
50906;SDS011;36882;27.680;85.304;2022-09-03T02:59:53;52.80;;;33.70;;
50906;SDS011;36882;27.680;85.304;2022-09-03T03:02:24;48.20;;;29.73;;
50906;SDS011;36882;27.680;85.304;2022-09-03T03:04:56;40.95;;;31.50;;
50906;SDS011;36882;27.680;85.304;2022-09-03T03:07:27;38.63;;;31.27;;
50906;SDS011;36882;27.680;85.304;2022-09-03T03:10:01;40.30;;;29.38;;
50906;SDS011;36882;27.680;85.304;2022-09-03T03:12:31;43.70;;;29.48;;
50906;SDS011;36882;27.680;85.304;2022-09-03T03:15:04;39.90;;;26.45;;
50906;SDS011;36882;27.680;85.304;2022-09-03T03:17:35;51.80;;;28.52;;
50906;SDS011;36882;27.680;85.304;2022-09-03T03:20:07;38.00;;;28.02;;
50906;SDS011;36882;27.680;85.304;2022-09-03T03:22:40;43.00;;;28.75;;
50906;SDS011;36882;27.680;85.304;2022-09-03T03:25:13;38.88;;;28.35;;
50906;SDS011;36882;27.680;85.304;2022-09-03T03:27:44;44.95;;;27.40;;
50906;SDS011;36882;27.680;85.304;2022-09-03T03:30:18;41.80;;;30.63;;
50906;SDS011;36882;27.680;85.304;2022-09-03T03:32:51;47.13;;;29.83;;
50906;SDS011;36882;27.680;85.304;2022-09-03T03:35:23;43.92;;;29.48;;
50906;SDS011;36882;27.680;85.304;2022-09-03T03:37:56;44.97;;;30.20;;
50906;SDS011;36882;27.680;85.304;2022-09-03T03:40:32;40.38;;;28.73;;
50906;SDS011;36882;27.680;85.304;2022-09-03T03:43:04;39.33;;;29.88;;
50906;SDS011;36882;27.680;85.304;2022-09-03T03:45:36;44.30;;;32.10;;
50906;SDS011;36882;27.680;85.304;2022-09-03T03:48:10;49.58;;;32.50;;
50906;SDS011;36882;27.680;85.304;2022-09-03T03:50:41;42.22;;;29.77;;
50906;SDS011;36882;27.680;85.304;2022-09-03T03:53:12;49.28;;;30.08;;
50906;SDS011;36882;27.680;85.304;2022-09-03T03:55:53;36.70;;;27.75;;
50906;SDS011;36882;27.680;85.304;2022-09-03T03:58:24;49.30;;;31.45;;
50906;SDS011;36882;27.680;85.304;2022-09-03T04:01:12;41.67;;;31.02;;
50906;SDS011;36882;27.680;85.304;2022-09-03T04:03:44;40.60;;;29.92;;
50906;SDS011;36882;27.680;85.304;2022-09-03T04:06:16;45.85;;;28.95;;
50906;SDS011;36882;27.680;85.304;2022-09-03T04:08:48;39.22;;;27.10;;
50906;SDS011;36882;27.680;85.304;2022-09-03T04:11:20;41.92;;;29.05;;
50906;SDS011;36882;27.680;85.304;2022-09-03T04:13:52;38.05;;;29.15;;
50906;SDS011;36882;27.680;85.304;2022-09-03T04:16:25;35.67;;;24.73;;
50906;SDS011;36882;27.680;85.304;2022-09-03T04:18:56;37.53;;;22.85;;
50906;SDS011;36882;27.680;85.304;2022-09-03T04:21:28;35.38;;;23.95;;
50906;SDS011;36882;27.680;85.304;2022-09-03T04:23:59;33.05;;;23.55;;
50906;SDS011;36882;27.680;85.304;2022-09-03T04:26:32;36.65;;;25.58;;
50906;SDS011;36882;27.680;85.304;2022-09-03T04:29:04;33.70;;;25.38;;
50906;SDS011;36882;27.680;85.304;2022-09-03T04:31:37;38.13;;;26.83;;
50906;SDS011;36882;27.680;85.304;2022-09-03T04:34:26;38.55;;;25.48;;
50906;SDS011;36882;27.680;85.304;2022-09-03T04:36:57;42.40;;;25.98;;
50906;SDS011;36882;27.680;85.304;2022-09-03T04:39:27;35.40;;;25.27;;
50906;SDS011;36882;27.680;85.304;2022-09-03T04:41:58;38.20;;;25.13;;
50906;SDS011;36882;27.680;85.304;2022-09-03T04:44:29;39.05;;;27.98;;
50906;SDS011;36882;27.680;85.304;2022-09-03T04:47:00;36.83;;;27.13;;
50906;SDS011;36882;27.680;85.304;2022-09-03T04:49:31;37.00;;;28.35;;
50906;SDS011;36882;27.680;85.304;2022-09-03T04:52:02;48.95;;;29.13;;
50906;SDS011;36882;27.680;85.304;2022-09-03T04:54:32;38.55;;;29.65;;
50906;SDS011;36882;27.680;85.304;2022-09-03T04:57:03;38.63;;;28.30;;
50906;SDS011;36882;27.680;85.304;2022-09-03T04:59:36;40.30;;;29.50;;
50906;SDS011;36882;27.680;85.304;2022-09-03T05:02:07;40.15;;;29.48;;
50906;SDS011;36882;27.680;85.304;2022-09-03T05:04:37;40.08;;;30.13;;
50906;SDS011;36882;27.680;85.304;2022-09-03T05:07:09;37.58;;;29.90;;
50906;SDS011;36882;27.680;85.304;2022-09-03T05:09:46;46.97;;;29.30;;
50906;SDS011;36882;27.680;85.304;2022-09-03T05:12:16;49.92;;;28.77;;
50906;SDS011;36882;27.680;85.304;2022-09-03T05:14:46;37.65;;;27.95;;
50906;SDS011;36882;27.680;85.304;2022-09-03T05:17:17;33.72;;;25.63;;
50906;SDS011;36882;27.680;85.304;2022-09-03T05:19:47;39.65;;;26.25;;
50906;SDS011;36882;27.680;85.304;2022-09-03T05:22:18;38.85;;;26.60;;
50906;SDS011;36882;27.680;85.304;2022-09-03T05:24:49;34.63;;;22.23;;
50906;SDS011;36882;27.680;85.304;2022-09-03T05:27:21;29.05;;;22.58;;
50906;SDS011;36882;27.680;85.304;2022-09-03T05:34:44;32.53;;;23.00;;
50906;SDS011;36882;27.680;85.304;2022-09-03T05:37:15;31.83;;;22.27;;
50906;SDS011;36882;27.680;85.304;2022-09-03T05:39:46;32.35;;;22.42;;
50906;SDS011;36882;27.680;85.304;2022-09-03T05:42:16;40.15;;;25.25;;
50906;SDS011;36882;27.680;85.304;2022-09-03T05:44:47;31.48;;;21.98;;
50906;SDS011;36882;27.680;85.304;2022-09-03T05:47:18;38.17;;;21.23;;
50906;SDS011;36882;27.680;85.304;2022-09-03T05:49:48;31.83;;;23.27;;
50906;SDS011;36882;27.680;85.304;2022-09-03T05:52:18;27.83;;;23.88;;
50906;SDS011;36882;27.680;85.304;2022-09-03T05:54:51;31.30;;;22.38;;
50906;SDS011;36882;27.680;85.304;2022-09-03T05:57:22;27.80;;;18.45;;
50906;SDS011;36882;27.680;85.304;2022-09-03T05:59:54;22.45;;;17.85;;
50906;SDS011;36882;27.680;85.304;2022-09-03T06:02:25;32.97;;;17.92;;
50906;SDS011;36882;27.680;85.304;2022-09-03T06:04:57;30.58;;;17.63;;
50906;SDS011;36882;27.680;85.304;2022-09-03T06:07:28;29.77;;;17.40;;
50906;SDS011;36882;27.680;85.304;2022-09-03T06:09:59;24.15;;;18.67;;
50906;SDS011;36882;27.680;85.304;2022-09-03T06:12:29;18.77;;;15.75;;
50906;SDS011;36882;27.680;85.304;2022-09-03T06:14:59;20.92;;;15.00;;
50906;SDS011;36882;27.680;85.304;2022-09-03T06:17:30;23.90;;;19.17;;
50906;SDS011;36882;27.680;85.304;2022-09-03T06:20:03;34.75;;;18.40;;
50906;SDS011;36882;27.680;85.304;2022-09-03T06:22:33;31.02;;;18.80;;
50906;SDS011;36882;27.680;85.304;2022-09-03T06:25:04;30.40;;;19.65;;
50906;SDS011;36882;27.680;85.304;2022-09-03T06:27:35;30.77;;;21.08;;
50906;SDS011;36882;27.680;85.304;2022-09-03T06:30:06;29.20;;;18.08;;
50906;SDS011;36882;27.680;85.304;2022-09-03T06:32:45;34.83;;;19.98;;
50906;SDS011;36882;27.680;85.304;2022-09-03T06:35:15;29.33;;;20.38;;
50906;SDS011;36882;27.680;85.304;2022-09-03T06:37:46;27.38;;;19.08;;
50906;SDS011;36882;27.680;85.304;2022-09-03T06:40:17;26.23;;;16.05;;
50906;SDS011;36882;27.680;85.304;2022-09-03T06:42:57;24.83;;;18.48;;
50906;SDS011;36882;27.680;85.304;2022-09-03T06:45:30;27.42;;;17.75;;
50906;SDS011;36882;27.680;85.304;2022-09-03T06:48:00;22.48;;;16.95;;
50906;SDS011;36882;27.680;85.304;2022-09-03T07:03:31;29.00;;;18.23;;
50906;SDS011;36882;27.680;85.304;2022-09-03T07:06:05;28.05;;;18.58;;
50906;SDS011;36882;27.680;85.304;2022-09-03T07:26:54;24.40;;;18.88;;
50906;SDS011;36882;27.680;85.304;2022-09-03T07:29:25;24.92;;;16.13;;
50906;SDS011;36882;27.680;85.304;2022-09-03T07:31:56;30.95;;;16.77;;
50906;SDS011;36882;27.680;85.304;2022-09-03T07:34:27;27.15;;;16.92;;
50906;SDS011;36882;27.680;85.304;2022-09-03T07:36:58;25.38;;;15.43;;
50906;SDS011;36882;27.680;85.304;2022-09-03T07:39:29;22.35;;;16.98;;
50906;SDS011;36882;27.680;85.304;2022-09-03T07:42:01;19.83;;;15.82;;
50906;SDS011;36882;27.680;85.304;2022-09-03T07:44:32;37.15;;;18.73;;
50906;SDS011;36882;27.680;85.304;2022-09-03T07:47:02;27.00;;;16.85;;
50906;SDS011;36882;27.680;85.304;2022-09-03T07:49:34;27.02;;;18.15;;
50906;SDS011;36882;27.680;85.304;2022-09-03T07:52:04;28.52;;;18.10;;
50906;SDS011;36882;27.680;85.304;2022-09-03T07:54:39;28.38;;;16.48;;
50906;SDS011;36882;27.680;85.304;2022-09-03T07:57:10;29.30;;;17.52;;
50906;SDS011;36882;27.680;85.304;2022-09-03T07:59:43;21.38;;;17.20;;
50906;SDS011;36882;27.680;85.304;2022-09-03T08:02:14;20.42;;;15.02;;
50906;SDS011;36882;27.680;85.304;2022-09-03T08:54:39;30.35;;;18.60;;
50906;SDS011;36882;27.680;85.304;2022-09-03T08:57:11;22.38;;;17.20;;
50906;SDS011;36882;27.680;85.304;2022-09-03T08:59:43;30.73;;;18.27;;
50906;SDS011;36882;27.680;85.304;2022-09-03T09:02:21;29.13;;;18.98;;
50906;SDS011;36882;27.680;85.304;2022-09-03T09:07:59;39.90;;;20.90;;
50906;SDS011;36882;27.680;85.304;2022-09-03T09:10:42;23.67;;;17.73;;
50906;SDS011;36882;27.680;85.304;2022-09-03T09:13:24;30.10;;;19.13;;
50906;SDS011;36882;27.680;85.304;2022-09-03T09:41:36;28.05;;;18.17;;
50906;SDS011;36882;27.680;85.304;2022-09-03T09:44:07;32.65;;;18.73;;
50906;SDS011;36882;27.680;85.304;2022-09-03T09:46:46;23.65;;;18.20;;
50906;SDS011;36882;27.680;85.304;2022-09-03T09:49:35;27.02;;;17.45;;
50906;SDS011;36882;27.680;85.304;2022-09-03T09:52:12;27.08;;;19.05;;
50906;SDS011;36882;27.680;85.304;2022-09-03T09:54:44;26.02;;;19.45;;
50906;SDS011;36882;27.680;85.304;2022-09-03T09:57:16;25.77;;;17.95;;
50906;SDS011;36882;27.680;85.304;2022-09-03T10:02:47;24.83;;;18.98;;
50906;SDS011;36882;27.680;85.304;2022-09-03T10:05:23;29.65;;;19.42;;
50906;SDS011;36882;27.680;85.304;2022-09-03T10:07:59;31.77;;;20.58;;
50906;SDS011;36882;27.680;85.304;2022-09-03T10:10:33;26.70;;;19.02;;
50906;SDS011;36882;27.680;85.304;2022-09-03T10:13:13;26.33;;;18.17;;
50906;SDS011;36882;27.680;85.304;2022-09-03T10:15:57;30.45;;;20.55;;
50906;SDS011;36882;27.680;85.304;2022-09-03T10:18:38;36.22;;;20.65;;
50906;SDS011;36882;27.680;85.304;2022-09-03T10:21:14;29.38;;;18.63;;
50906;SDS011;36882;27.680;85.304;2022-09-03T10:26:57;34.63;;;20.00;;
50906;SDS011;36882;27.680;85.304;2022-09-03T10:29:27;32.15;;;19.65;;
50906;SDS011;36882;27.680;85.304;2022-09-03T10:35:28;32.08;;;21.48;;
50906;SDS011;36882;27.680;85.304;2022-09-03T10:38:05;33.08;;;19.67;;
50906;SDS011;36882;27.680;85.304;2022-09-03T10:40:55;32.63;;;21.08;;
50906;SDS011;36882;27.680;85.304;2022-09-03T10:43:53;30.58;;;21.50;;
50906;SDS011;36882;27.680;85.304;2022-09-03T10:46:46;28.10;;;21.50;;
50906;SDS011;36882;27.680;85.304;2022-09-03T10:49:39;30.48;;;20.92;;
50906;SDS011;36882;27.680;85.304;2022-09-03T10:52:26;34.78;;;22.58;;
50906;SDS011;36882;27.680;85.304;2022-09-03T10:58:23;29.85;;;21.40;;
50906;SDS011;36882;27.680;85.304;2022-09-03T11:01:22;34.25;;;20.90;;
50906;SDS011;36882;27.680;85.304;2022-09-03T11:04:31;38.08;;;21.98;;
50906;SDS011;36882;27.680;85.304;2022-09-03T11:07:19;40.20;;;23.23;;
50906;SDS011;36882;27.680;85.304;2022-09-03T11:09:56;32.47;;;22.13;;
50906;SDS011;36882;27.680;85.304;2022-09-03T11:12:44;38.07;;;21.00;;
50906;SDS011;36882;27.680;85.304;2022-09-03T11:15:23;33.67;;;23.15;;
50906;SDS011;36882;27.680;85.304;2022-09-03T11:21:04;43.60;;;26.92;;
50906;SDS011;36882;27.680;85.304;2022-09-03T11:23:43;37.33;;;25.50;;
50906;SDS011;36882;27.680;85.304;2022-09-03T11:26:21;40.63;;;24.45;;
50906;SDS011;36882;27.680;85.304;2022-09-03T11:28:58;38.03;;;23.13;;
50906;SDS011;36882;27.680;85.304;2022-09-03T11:32:00;39.83;;;22.15;;
50906;SDS011;36882;27.680;85.304;2022-09-03T11:37:21;41.00;;;26.00;;
50906;SDS011;36882;27.680;85.304;2022-09-03T11:39:54;41.20;;;24.13;;
50906;SDS011;36882;27.680;85.304;2022-09-03T11:42:29;40.75;;;24.45;;
50906;SDS011;36882;27.680;85.304;2022-09-03T11:48:40;63.33;;;40.00;;
50906;SDS011;36882;27.680;85.304;2022-09-03T11:51:35;35.10;;;24.60;;
50906;SDS011;36882;27.680;85.304;2022-09-03T11:54:22;28.98;;;21.40;;
50906;SDS011;36882;27.680;85.304;2022-09-03T11:57:08;24.70;;;20.50;;
50906;SDS011;36882;27.680;85.304;2022-09-03T11:59:42;31.50;;;19.90;;
50906;SDS011;36882;27.680;85.304;2022-09-03T12:02:29;35.33;;;22.88;;
50906;SDS011;36882;27.680;85.304;2022-09-03T12:08:09;29.35;;;21.85;;
50906;SDS011;36882;27.680;85.304;2022-09-03T12:14:26;31.95;;;21.63;;
50906;SDS011;36882;27.680;85.304;2022-09-03T12:19:59;31.52;;;20.77;;
50906;SDS011;36882;27.680;85.304;2022-09-03T12:22:34;29.27;;;21.65;;
50906;SDS011;36882;27.680;85.304;2022-09-03T12:25:10;33.00;;;21.67;;
50906;SDS011;36882;27.680;85.304;2022-09-03T12:27:43;32.72;;;22.50;;
50906;SDS011;36882;27.680;85.304;2022-09-03T12:30:16;43.25;;;24.52;;
50906;SDS011;36882;27.680;85.304;2022-09-03T12:32:47;39.40;;;24.27;;
50906;SDS011;36882;27.680;85.304;2022-09-03T12:35:19;36.55;;;23.73;;
50906;SDS011;36882;27.680;85.304;2022-09-03T12:38:12;33.63;;;23.05;;
50906;SDS011;36882;27.680;85.304;2022-09-03T12:40:52;38.78;;;26.65;;
50906;SDS011;36882;27.680;85.304;2022-09-03T12:43:54;37.78;;;25.05;;
50906;SDS011;36882;27.680;85.304;2022-09-03T12:46:27;40.78;;;25.20;;
50906;SDS011;36882;27.680;85.304;2022-09-03T12:49:01;35.03;;;26.88;;
50906;SDS011;36882;27.680;85.304;2022-09-03T12:51:59;37.25;;;24.02;;
50906;SDS011;36882;27.680;85.304;2022-09-03T12:57:30;44.58;;;31.52;;
50906;SDS011;36882;27.680;85.304;2022-09-03T13:00:13;54.30;;;33.67;;
50906;SDS011;36882;27.680;85.304;2022-09-03T13:02:57;53.45;;;34.20;;
50906;SDS011;36882;27.680;85.304;2022-09-03T13:05:43;40.28;;;28.05;;
50906;SDS011;36882;27.680;85.304;2022-09-03T13:08:20;40.72;;;28.13;;
50906;SDS011;36882;27.680;85.304;2022-09-03T13:10:55;42.65;;;27.85;;
50906;SDS011;36882;27.680;85.304;2022-09-03T13:13:30;47.45;;;27.90;;
50906;SDS011;36882;27.680;85.304;2022-09-03T13:25:19;49.13;;;30.90;;
50906;SDS011;36882;27.680;85.304;2022-09-03T13:34:13;38.65;;;30.48;;
50906;SDS011;36882;27.680;85.304;2022-09-03T13:37:06;42.75;;;29.65;;
50906;SDS011;36882;27.680;85.304;2022-09-03T13:40:57;44.65;;;29.45;;
50906;SDS011;36882;27.680;85.304;2022-09-03T13:43:04;54.65;;;29.80;;
50906;SDS011;36882;27.680;85.304;2022-09-03T13:45:57;48.33;;;30.48;;
50906;SDS011;36882;27.680;85.304;2022-09-03T13:48:40;52.83;;;30.67;;
50906;SDS011;36882;27.680;85.304;2022-09-03T13:51:30;52.63;;;33.67;;
50906;SDS011;36882;27.680;85.304;2022-09-03T13:54:26;53.65;;;36.30;;
50906;SDS011;36882;27.680;85.304;2022-09-03T13:57:33;58.47;;;36.08;;
50906;SDS011;36882;27.680;85.304;2022-09-03T14:00:21;50.10;;;35.60;;
50906;SDS011;36882;27.680;85.304;2022-09-03T14:03:06;49.75;;;33.35;;
50906;SDS011;36882;27.680;85.304;2022-09-03T14:05:55;41.35;;;29.73;;
50906;SDS011;36882;27.680;85.304;2022-09-03T14:08:58;43.47;;;30.52;;
50906;SDS011;36882;27.680;85.304;2022-09-03T14:12:04;52.80;;;31.17;;
50906;SDS011;36882;27.680;85.304;2022-09-03T14:15:10;44.17;;;29.20;;
50906;SDS011;36882;27.680;85.304;2022-09-03T14:21:16;40.05;;;30.10;;
50906;SDS011;36882;27.680;85.304;2022-09-03T14:23:58;43.88;;;33.35;;
50906;SDS011;36882;27.680;85.304;2022-09-03T14:26:48;56.22;;;34.72;;
50906;SDS011;36882;27.680;85.304;2022-09-03T14:29:26;53.88;;;34.45;;
50906;SDS011;36882;27.680;85.304;2022-09-03T14:32:18;58.67;;;38.50;;
50906;SDS011;36882;27.680;85.304;2022-09-03T14:41:02;45.50;;;30.40;;
50906;SDS011;36882;27.680;85.304;2022-09-03T14:47:00;60.88;;;39.70;;
50906;SDS011;36882;27.680;85.304;2022-09-03T14:49:56;55.38;;;39.22;;
50906;SDS011;36882;27.680;85.304;2022-09-03T14:55:51;55.20;;;37.40;;
50906;SDS011;36882;27.680;85.304;2022-09-03T15:01:38;50.97;;;34.08;;
50906;SDS011;36882;27.680;85.304;2022-09-03T15:04:23;50.75;;;33.58;;
50906;SDS011;36882;27.680;85.304;2022-09-03T15:07:20;54.22;;;32.10;;
50906;SDS011;36882;27.680;85.304;2022-09-03T15:10:07;51.55;;;32.13;;
50906;SDS011;36882;27.680;85.304;2022-09-03T15:12:52;46.05;;;28.38;;
50906;SDS011;36882;27.680;85.304;2022-09-03T15:15:31;47.30;;;28.58;;
50906;SDS011;36882;27.680;85.304;2022-09-03T15:18:30;42.15;;;27.27;;
50906;SDS011;36882;27.680;85.304;2022-09-03T15:27:37;42.38;;;29.10;;
50906;SDS011;36882;27.680;85.304;2022-09-03T15:30:20;43.60;;;27.38;;
50906;SDS011;36882;27.680;85.304;2022-09-03T15:33:03;48.78;;;29.70;;
50906;SDS011;36882;27.680;85.304;2022-09-03T15:36:07;49.70;;;31.42;;
50906;SDS011;36882;27.680;85.304;2022-09-03T15:38:49;40.88;;;29.80;;
50906;SDS011;36882;27.680;85.304;2022-09-03T15:41:51;41.55;;;30.42;;
50906;SDS011;36882;27.680;85.304;2022-09-03T15:44:27;39.53;;;27.60;;
50906;SDS011;36882;27.680;85.304;2022-09-03T15:47:10;39.20;;;27.25;;
50906;SDS011;36882;27.680;85.304;2022-09-03T15:49:58;43.63;;;27.73;;
50906;SDS011;36882;27.680;85.304;2022-09-03T15:52:39;52.65;;;31.15;;
50906;SDS011;36882;27.680;85.304;2022-09-03T15:55:48;53.80;;;31.05;;
50906;SDS011;36882;27.680;85.304;2022-09-03T16:01:20;42.88;;;28.38;;
50906;SDS011;36882;27.680;85.304;2022-09-03T16:04:17;42.38;;;27.65;;
50906;SDS011;36882;27.680;85.304;2022-09-03T16:07:02;41.20;;;30.08;;
50906;SDS011;36882;27.680;85.304;2022-09-03T16:13:04;41.08;;;26.95;;
50906;SDS011;36882;27.680;85.304;2022-09-03T16:16:01;40.75;;;26.63;;
50906;SDS011;36882;27.680;85.304;2022-09-03T16:18:38;37.65;;;27.05;;
50906;SDS011;36882;27.680;85.304;2022-09-03T16:27:08;39.40;;;26.10;;
50906;SDS011;36882;27.680;85.304;2022-09-03T16:32:50;35.15;;;24.77;;
50906;SDS011;36882;27.680;85.304;2022-09-03T16:41:51;25.40;;;18.60;;
50906;SDS011;36882;27.680;85.304;2022-09-03T16:44:58;22.17;;;18.70;;
50906;SDS011;36882;27.680;85.304;2022-09-03T16:47:48;32.60;;;21.15;;
50906;SDS011;36882;27.680;85.304;2022-09-03T16:50:41;34.35;;;21.95;;
50906;SDS011;36882;27.680;85.304;2022-09-03T16:53:45;26.85;;;19.17;;
50906;SDS011;36882;27.680;85.304;2022-09-03T16:56:43;23.65;;;17.63;;
50906;SDS011;36882;27.680;85.304;2022-09-03T16:59:32;26.73;;;18.40;;
50906;SDS011;36882;27.680;85.304;2022-09-03T17:02:24;21.67;;;15.52;;
50906;SDS011;36882;27.680;85.304;2022-09-03T17:08:21;20.85;;;13.95;;
50906;SDS011;36882;27.680;85.304;2022-09-03T17:11:07;15.18;;;11.88;;
50906;SDS011;36882;27.680;85.304;2022-09-03T17:14:03;17.42;;;11.75;;
50906;SDS011;36882;27.680;85.304;2022-09-03T17:17:03;19.33;;;13.95;;
50906;SDS011;36882;27.680;85.304;2022-09-03T17:19:53;18.08;;;13.50;;
50906;SDS011;36882;27.680;85.304;2022-09-03T17:25:49;16.20;;;13.52;;
50906;SDS011;36882;27.680;85.304;2022-09-03T17:28:42;20.58;;;15.05;;
50906;SDS011;36882;27.680;85.304;2022-09-03T17:31:45;22.08;;;14.93;;
50906;SDS011;36882;27.680;85.304;2022-09-03T17:34:44;21.15;;;15.73;;
50906;SDS011;36882;27.680;85.304;2022-09-03T17:37:45;18.85;;;14.20;;
50906;SDS011;36882;27.680;85.304;2022-09-03T17:43:27;16.13;;;13.48;;
50906;SDS011;36882;27.680;85.304;2022-09-03T17:49:20;19.65;;;13.02;;
50906;SDS011;36882;27.680;85.304;2022-09-03T17:52:01;18.55;;;11.05;;
50906;SDS011;36882;27.680;85.304;2022-09-03T17:54:49;12.68;;;9.02;;
50906;SDS011;36882;27.680;85.304;2022-09-03T17:57:37;13.32;;;9.45;;
50906;SDS011;36882;27.680;85.304;2022-09-03T18:00:22;15.27;;;10.97;;
50906;SDS011;36882;27.680;85.304;2022-09-03T18:05:54;13.30;;;9.38;;
50906;SDS011;36882;27.680;85.304;2022-09-03T18:08:43;13.13;;;9.80;;
50906;SDS011;36882;27.680;85.304;2022-09-03T18:11:33;14.38;;;10.30;;
50906;SDS011;36882;27.680;85.304;2022-09-03T18:20:12;14.73;;;10.90;;
50906;SDS011;36882;27.680;85.304;2022-09-03T18:23:02;14.70;;;11.73;;
50906;SDS011;36882;27.680;85.304;2022-09-03T18:25:53;15.80;;;11.30;;
50906;SDS011;36882;27.680;85.304;2022-09-03T18:28:45;17.40;;;12.30;;
50906;SDS011;36882;27.680;85.304;2022-09-03T18:31:31;16.75;;;13.00;;
50906;SDS011;36882;27.680;85.304;2022-09-03T18:34:25;15.50;;;12.00;;
50906;SDS011;36882;27.680;85.304;2022-09-03T18:37:12;15.32;;;12.23;;
50906;SDS011;36882;27.680;85.304;2022-09-03T18:40:02;18.58;;;13.23;;
50906;SDS011;36882;27.680;85.304;2022-09-03T18:46:15;19.95;;;14.45;;
50906;SDS011;36882;27.680;85.304;2022-09-03T18:49:46;30.08;;;17.50;;
50906;SDS011;36882;27.680;85.304;2022-09-03T18:52:55;19.40;;;13.85;;
50906;SDS011;36882;27.680;85.304;2022-09-03T18:55:52;19.27;;;13.63;;
50906;SDS011;36882;27.680;85.304;2022-09-03T18:58:54;19.10;;;12.93;;
50906;SDS011;36882;27.680;85.304;2022-09-03T19:01:54;19.65;;;14.88;;
50906;SDS011;36882;27.680;85.304;2022-09-03T19:04:53;20.27;;;13.13;;
50906;SDS011;36882;27.680;85.304;2022-09-03T19:07:59;16.10;;;12.60;;
50906;SDS011;36882;27.680;85.304;2022-09-03T19:11:27;18.98;;;14.68;;
50906;SDS011;36882;27.680;85.304;2022-09-03T19:17:31;21.15;;;13.65;;
50906;SDS011;36882;27.680;85.304;2022-09-03T19:20:28;19.52;;;15.48;;
50906;SDS011;36882;27.680;85.304;2022-09-03T19:23:17;20.52;;;15.25;;
50906;SDS011;36882;27.680;85.304;2022-09-03T19:26:03;22.08;;;14.57;;
50906;SDS011;36882;27.680;85.304;2022-09-03T19:29:13;21.92;;;14.40;;
50906;SDS011;36882;27.680;85.304;2022-09-03T19:32:19;17.83;;;13.23;;
50906;SDS011;36882;27.680;85.304;2022-09-03T19:35:11;17.40;;;12.90;;
50906;SDS011;36882;27.680;85.304;2022-09-03T19:41:17;16.83;;;13.32;;
50906;SDS011;36882;27.680;85.304;2022-09-03T19:47:38;19.92;;;12.95;;
50906;SDS011;36882;27.680;85.304;2022-09-03T19:50:31;25.13;;;13.55;;
50906;SDS011;36882;27.680;85.304;2022-09-03T19:53:20;16.42;;;12.32;;
50906;SDS011;36882;27.680;85.304;2022-09-03T19:56:14;17.27;;;12.50;;
50906;SDS011;36882;27.680;85.304;2022-09-03T19:59:15;14.90;;;12.55;;
50906;SDS011;36882;27.680;85.304;2022-09-03T20:02:01;16.67;;;13.50;;
50906;SDS011;36882;27.680;85.304;2022-09-03T20:04:54;14.15;;;11.35;;
50906;SDS011;36882;27.680;85.304;2022-09-03T20:07:43;18.17;;;12.90;;
50906;SDS011;36882;27.680;85.304;2022-09-03T20:10:33;18.05;;;10.43;;
50906;SDS011;36882;27.680;85.304;2022-09-03T20:13:11;16.58;;;12.95;;
50906;SDS011;36882;27.680;85.304;2022-09-03T20:18:41;15.50;;;11.65;;
50906;SDS011;36882;27.680;85.304;2022-09-03T20:21:38;12.73;;;9.70;;
50906;SDS011;36882;27.680;85.304;2022-09-03T20:24:23;14.25;;;11.02;;
50906;SDS011;36882;27.680;85.304;2022-09-03T20:27:19;18.35;;;11.70;;
50906;SDS011;36882;27.680;85.304;2022-09-03T20:30:00;14.30;;;11.75;;